createdAt,value
2022-10-19T00:02:11.462Z,5.90
2022-10-19T00:04:38.158Z,5.47
2022-10-19T00:07:04.692Z,5.75
2022-10-19T00:09:31.332Z,6.45
2022-10-19T00:11:57.879Z,5.68
2022-10-19T00:14:24.811Z,6.35
2022-10-19T00:16:52.915Z,7.40
2022-10-19T00:19:23.156Z,5.75
2022-10-19T00:24:17.785Z,5.90
2022-10-19T00:26:44.681Z,5.45
2022-10-19T00:29:13.537Z,5.47
2022-10-19T00:31:41.200Z,5.95
2022-10-19T00:34:07.946Z,5.50
2022-10-19T00:36:38.055Z,5.93
2022-10-19T00:39:07.762Z,5.40
2022-10-19T00:41:36.398Z,5.55
2022-10-19T00:44:11.939Z,6.00
2022-10-19T00:49:20.427Z,6.07
2022-10-19T00:51:54.659Z,5.78
2022-10-19T00:54:22.235Z,5.68
2022-10-19T00:56:52.232Z,5.35
2022-10-19T00:59:21.636Z,5.32
2022-10-19T01:01:49.879Z,5.55
2022-10-19T01:04:16.818Z,5.55
2022-10-19T01:06:43.548Z,5.22
2022-10-19T01:09:10.264Z,6.00
2022-10-19T01:11:39.915Z,6.22
2022-10-19T01:14:21.427Z,6.13
2022-10-19T01:17:15.751Z,5.70
2022-10-19T01:19:57.450Z,5.20
2022-10-19T01:22:26.705Z,4.93
2022-10-19T01:25:21.239Z,6.57
2022-10-19T01:27:59.664Z,6.22
2022-10-19T01:30:41.431Z,5.72
2022-10-19T01:33:35.372Z,5.70
2022-10-19T01:36:10.995Z,5.63
2022-10-19T01:38:59.099Z,5.97
2022-10-19T01:41:38.825Z,5.10
2022-10-19T01:44:16.847Z,5.68
2022-10-19T01:46:57.033Z,6.70
2022-10-19T01:49:31.610Z,7.45
2022-10-19T01:52:03.281Z,6.82
2022-10-19T01:54:36.256Z,5.60
2022-10-19T01:57:07.210Z,5.63
2022-10-19T01:59:35.254Z,6.40
2022-10-19T02:02:07.016Z,5.10
2022-10-19T02:04:36.665Z,6.35
2022-10-19T02:07:06.515Z,5.70
2022-10-19T02:09:33.198Z,5.05
2022-10-19T02:12:04.854Z,4.97
2022-10-19T02:14:37.438Z,5.13
2022-10-19T02:17:14.212Z,5.45
2022-10-19T02:19:41.563Z,4.90
2022-10-19T02:22:08.628Z,4.90
2022-10-19T02:24:35.266Z,4.80
2022-10-19T02:27:05.432Z,5.13
2022-10-19T02:29:37.520Z,5.50
2022-10-19T02:32:04.965Z,4.70
2022-10-19T02:34:32.623Z,5.40
2022-10-19T02:36:59.540Z,4.70
2022-10-19T02:39:26.276Z,4.70
2022-10-19T02:42:12.114Z,5.65
2022-10-19T02:44:58.448Z,5.15
2022-10-19T02:47:35.454Z,5.15
2022-10-19T02:50:06.802Z,5.35
2022-10-19T02:52:33.437Z,4.75
2022-10-19T02:55:00.013Z,5.63
2022-10-19T02:57:26.634Z,4.90
2022-10-19T02:59:53.430Z,4.70
2022-10-19T03:02:21.261Z,5.47
2022-10-19T03:07:21.037Z,5.10
2022-10-19T03:09:47.682Z,5.53
2022-10-19T03:12:14.886Z,5.25
2022-10-19T03:14:41.617Z,5.18
2022-10-19T03:17:08.560Z,4.80
2022-10-19T03:19:36.112Z,4.90
2022-10-19T03:22:03.239Z,5.68
2022-10-19T03:24:30.740Z,5.93
2022-10-19T03:26:57.492Z,4.60
2022-10-19T03:29:24.234Z,5.15
2022-10-19T03:31:51.125Z,5.13
2022-10-19T03:34:17.752Z,4.65
2022-10-19T03:36:44.695Z,4.75
2022-10-19T03:39:14.447Z,4.55
2022-10-19T03:41:41.262Z,5.03
2022-10-19T03:44:09.324Z,4.70
2022-10-19T03:46:36.689Z,5.80
2022-10-19T03:49:04.541Z,5.22
2022-10-19T03:51:32.714Z,5.13
2022-10-19T03:54:02.298Z,5.45
2022-10-19T03:56:30.531Z,4.60
2022-10-19T03:58:59.638Z,4.22
2022-10-19T04:01:30.996Z,5.10
2022-10-19T04:03:59.874Z,6.13
2022-10-19T04:06:31.284Z,4.28
2022-10-19T04:08:58.837Z,4.82
2022-10-19T04:11:30.253Z,4.45
2022-10-19T04:13:58.498Z,4.55
2022-10-19T04:16:27.309Z,4.95
2022-10-19T04:18:54.165Z,4.22
2022-10-19T04:21:20.665Z,5.20
2022-10-19T04:23:47.517Z,4.57
2022-10-19T04:26:14.134Z,4.13
2022-10-19T04:28:40.839Z,4.78
2022-10-19T04:31:08.289Z,5.43
2022-10-19T04:33:34.980Z,5.47
2022-10-19T04:36:07.235Z,5.78
2022-10-19T04:38:34.719Z,4.90
2022-10-19T04:41:06.569Z,4.78
2022-10-19T04:43:33.893Z,5.55
2022-10-19T04:46:10.742Z,5.30
2022-10-19T04:48:38.602Z,4.93
2022-10-19T04:51:05.739Z,4.53
2022-10-19T04:53:33.265Z,4.82
2022-10-19T04:56:00.356Z,5.43
2022-10-19T04:58:27.382Z,4.95
2022-10-19T05:00:54.055Z,3.95
2022-10-19T05:03:20.830Z,5.38
2022-10-19T05:05:47.430Z,3.55
2022-10-19T05:08:14.364Z,4.38
2022-10-19T05:10:44.215Z,4.50
2022-10-19T05:13:13.751Z,3.72
2022-10-19T05:15:40.643Z,3.88
2022-10-19T05:18:07.494Z,4.07
2022-10-19T05:20:34.160Z,4.68
2022-10-19T05:23:06.151Z,4.40
2022-10-19T05:25:34.246Z,4.00
2022-10-19T05:28:00.785Z,3.72
2022-10-19T05:30:27.495Z,4.00
2022-10-19T05:32:54.076Z,4.03
2022-10-19T05:35:22.626Z,4.20
2022-10-19T05:37:54.385Z,4.20
2022-10-19T05:40:21.128Z,4.25
2022-10-19T05:42:47.678Z,4.57
2022-10-19T05:45:14.455Z,4.30
2022-10-19T05:47:41.006Z,3.63
2022-10-19T05:50:08.072Z,4.95
2022-10-19T05:52:34.726Z,4.50
2022-10-19T05:55:01.454Z,4.88
2022-10-19T05:57:28.034Z,4.53
2022-10-19T05:59:56.834Z,4.78
2022-10-19T06:02:23.682Z,4.25
2022-10-19T06:04:50.323Z,4.43
2022-10-19T06:07:17.082Z,5.15
2022-10-19T06:09:43.941Z,4.97
2022-10-19T06:12:10.554Z,4.55
2022-10-19T06:14:37.277Z,4.05
2022-10-19T06:17:03.992Z,4.32
2022-10-19T06:19:30.706Z,5.53
2022-10-19T06:21:58.030Z,5.43
2022-10-19T06:24:24.717Z,4.90
2022-10-19T06:26:51.403Z,4.20
2022-10-19T06:29:19.001Z,5.55
2022-10-19T06:31:48.682Z,6.13
2022-10-19T06:34:15.626Z,4.88
2022-10-19T06:36:42.353Z,4.35
2022-10-19T06:39:09.549Z,5.15
2022-10-19T06:41:36.311Z,5.03
2022-10-19T06:44:18.117Z,6.35
2022-10-19T06:46:44.738Z,6.15
2022-10-19T06:49:13.093Z,6.25
2022-10-19T06:51:40.730Z,5.40
2022-10-19T06:54:07.953Z,5.40
2022-10-19T06:56:35.038Z,5.78
2022-10-19T06:59:02.350Z,5.82
2022-10-19T07:01:29.179Z,5.05
2022-10-19T07:03:56.010Z,4.38
2022-10-19T07:06:23.746Z,4.82
2022-10-19T07:08:50.541Z,5.55
2022-10-19T07:11:19.755Z,5.28
2022-10-19T07:13:46.558Z,5.78
2022-10-19T07:16:19.810Z,5.53
2022-10-19T07:18:48.659Z,6.55
2022-10-19T07:21:16.763Z,6.00
2022-10-19T07:23:47.394Z,5.40
2022-10-19T07:26:17.849Z,5.32
2022-10-19T07:28:47.157Z,5.82
2022-10-19T07:31:17.951Z,4.93
2022-10-19T07:33:45.046Z,6.50
2022-10-19T07:36:13.743Z,5.60
2022-10-19T07:38:40.791Z,4.70
2022-10-19T07:41:12.694Z,5.85
2022-10-19T07:43:40.947Z,6.32
2022-10-19T07:46:29.346Z,6.43
2022-10-19T07:48:56.240Z,6.60
2022-10-19T07:51:22.980Z,6.78
2022-10-19T07:53:49.895Z,6.30
2022-10-19T07:56:25.045Z,6.80
2022-10-19T07:58:53.841Z,5.95
2022-10-19T08:01:29.337Z,6.20
2022-10-19T08:06:43.825Z,7.22
2022-10-19T08:09:13.400Z,6.63
2022-10-19T08:11:49.686Z,6.97
2022-10-19T08:14:16.547Z,7.88
2022-10-19T08:16:44.624Z,7.28
2022-10-19T08:19:13.706Z,6.88
2022-10-19T08:21:43.939Z,7.70
2022-10-19T08:24:13.063Z,6.60
2022-10-19T08:26:40.917Z,6.65
2022-10-19T08:29:12.345Z,6.65
2022-10-19T08:31:40.335Z,5.85
2022-10-19T08:34:07.154Z,5.57
2022-10-19T08:36:35.938Z,5.35
2022-10-19T08:39:05.305Z,6.18
2022-10-19T08:41:41.418Z,6.45
2022-10-19T08:44:33.344Z,4.80
2022-10-19T08:47:27.087Z,4.80
2022-10-19T08:49:54.091Z,4.53
2022-10-19T08:52:35.977Z,5.05
2022-10-19T08:55:13.992Z,5.32
2022-10-19T08:58:20.586Z,4.68
2022-10-19T09:01:16.648Z,5.25
2022-10-19T09:04:01.821Z,5.40
2022-10-19T09:06:49.153Z,5.00
2022-10-19T09:09:18.644Z,4.65
2022-10-19T09:11:49.551Z,4.78
2022-10-19T09:14:30.452Z,4.65
2022-10-19T09:17:04.201Z,4.57
2022-10-19T09:19:32.089Z,4.30
2022-10-19T09:22:04.663Z,4.05
2022-10-19T09:24:48.283Z,4.20
2022-10-19T09:27:22.153Z,3.97
2022-10-19T09:29:57.484Z,5.03
2022-10-19T09:32:39.779Z,4.20
2022-10-19T09:35:25.066Z,4.18
2022-10-19T09:37:52.489Z,4.40
2022-10-19T09:40:22.930Z,3.85
2022-10-19T09:42:57.671Z,5.20
2022-10-19T09:45:40.595Z,4.13
2022-10-19T09:48:19.925Z,3.60
2022-10-19T09:50:53.939Z,4.10
2022-10-19T09:53:22.338Z,3.15
2022-10-19T09:55:58.952Z,3.50
2022-10-19T09:58:32.070Z,3.83
2022-10-19T10:01:01.889Z,3.35
2022-10-19T10:03:40.425Z,3.97
2022-10-19T10:06:10.442Z,4.32
2022-10-19T10:08:45.020Z,4.65
2022-10-19T10:11:37.827Z,3.23
2022-10-19T10:14:16.341Z,4.47
2022-10-19T10:16:43.590Z,3.90
2022-10-19T10:19:14.262Z,3.17
2022-10-19T10:21:49.601Z,3.47
2022-10-19T10:24:19.202Z,4.00
2022-10-19T10:26:51.876Z,4.38
2022-10-19T10:29:22.325Z,3.97
2022-10-19T10:31:55.898Z,3.55
2022-10-19T10:37:22.063Z,3.20
2022-10-19T10:39:53.303Z,3.75
2022-10-19T10:42:27.442Z,3.15
2022-10-19T10:44:56.492Z,3.97
2022-10-19T10:47:23.744Z,3.88
2022-10-19T10:49:57.597Z,3.38
2022-10-19T10:52:27.718Z,3.15
2022-10-19T10:55:09.969Z,3.63
2022-10-19T10:57:45.339Z,2.47
2022-10-19T11:02:53.230Z,3.47
2022-10-19T11:05:29.112Z,3.38
2022-10-19T11:08:08.068Z,3.72
2022-10-19T11:10:39.595Z,3.63
2022-10-19T11:13:18.511Z,3.60
2022-10-19T11:16:00.940Z,3.33
2022-10-19T11:18:34.267Z,3.58
2022-10-19T11:21:07.962Z,3.40
2022-10-19T11:23:48.126Z,3.13
2022-10-19T11:26:53.966Z,3.08
2022-10-19T11:29:29.582Z,3.20
2022-10-19T11:31:57.570Z,3.20
2022-10-19T11:34:45.678Z,3.15
2022-10-19T11:37:27.868Z,3.20
2022-10-19T11:39:54.509Z,3.05
2022-10-19T11:45:27.797Z,3.65
2022-10-19T11:48:06.560Z,2.55
2022-10-19T11:50:58.586Z,3.15
2022-10-19T11:53:49.603Z,3.40
2022-10-19T11:57:02.580Z,3.22
2022-10-19T11:59:51.022Z,3.15
2022-10-19T12:02:39.052Z,3.58
2022-10-19T12:05:29.798Z,3.63
2022-10-19T12:08:08.777Z,3.63
2022-10-19T12:10:48.148Z,2.75
2022-10-19T12:13:30.838Z,3.45
2022-10-19T12:15:59.586Z,3.30
2022-10-19T12:18:41.214Z,3.67
2022-10-19T12:21:26.533Z,3.53
2022-10-19T12:23:54.661Z,3.25
2022-10-19T12:26:22.962Z,4.28
2022-10-19T12:28:58.926Z,3.05
2022-10-19T12:31:27.330Z,2.90
2022-10-19T12:34:06.082Z,3.30
2022-10-19T12:36:58.411Z,3.63
2022-10-19T12:39:29.755Z,3.20
2022-10-19T12:42:27.677Z,3.42
2022-10-19T12:45:23.841Z,3.63
2022-10-19T12:48:08.706Z,4.10
2022-10-19T12:50:50.880Z,3.15
2022-10-19T12:53:33.021Z,3.35
2022-10-19T12:56:04.416Z,3.20
2022-10-19T12:58:47.582Z,3.22
2022-10-19T13:01:35.107Z,3.40
2022-10-19T13:04:10.404Z,3.58
2022-10-19T13:06:42.119Z,3.22
2022-10-19T13:09:22.134Z,3.55
2022-10-19T13:12:16.497Z,3.55
2022-10-19T13:14:58.870Z,2.83
2022-10-19T13:17:36.610Z,3.30
2022-10-19T13:20:15.349Z,3.00
2022-10-19T13:22:46.937Z,3.72
2022-10-19T13:25:20.878Z,3.95
2022-10-19T13:27:52.715Z,2.95
2022-10-19T13:30:46.991Z,3.05
2022-10-19T13:33:24.782Z,2.90
2022-10-19T13:36:00.957Z,3.20
2022-10-19T13:38:38.037Z,3.45
2022-10-19T13:41:25.895Z,3.13
2022-10-19T13:44:12.267Z,4.05
2022-10-19T13:47:10.254Z,3.65
2022-10-19T13:49:40.221Z,2.80
2022-10-19T13:52:24.302Z,3.15
2022-10-19T13:55:12.689Z,3.30
2022-10-19T13:57:54.172Z,2.70
2022-10-19T14:00:24.117Z,3.35
2022-10-19T14:03:11.804Z,2.70
2022-10-19T14:06:06.397Z,3.70
2022-10-19T14:08:41.966Z,3.65
2022-10-19T14:11:21.764Z,3.80
2022-10-19T14:14:13.575Z,3.35
2022-10-19T14:16:59.804Z,4.07
2022-10-19T14:19:32.910Z,3.88
2022-10-19T14:22:01.772Z,4.22
2022-10-19T14:24:35.318Z,3.92
2022-10-19T14:27:05.183Z,4.28
2022-10-19T14:29:46.469Z,3.85
2022-10-19T14:32:13.666Z,4.85
2022-10-19T14:34:42.117Z,4.47
2022-10-19T14:37:21.064Z,4.22
2022-10-19T14:40:06.349Z,7.60
2022-10-19T14:42:42.048Z,7.25
2022-10-19T14:45:18.267Z,7.40
2022-10-19T14:47:57.532Z,6.18
2022-10-19T14:50:46.920Z,5.03
2022-10-19T14:53:50.674Z,5.35
2022-10-19T14:56:29.635Z,3.65
2022-10-19T14:59:47.808Z,3.63
2022-10-19T15:02:26.491Z,3.97
2022-10-19T15:04:56.304Z,3.28
2022-10-19T15:07:34.967Z,3.20
2022-10-19T15:10:05.339Z,2.83
2022-10-19T15:12:39.021Z,3.65
2022-10-19T15:15:33.635Z,3.63
2022-10-19T15:18:00.472Z,3.83
2022-10-19T15:20:44.254Z,3.42
2022-10-19T15:23:41.685Z,3.70
2022-10-19T15:26:26.707Z,3.95
2022-10-19T15:28:55.391Z,4.40
2022-10-19T15:31:27.806Z,6.90
2022-10-19T15:33:57.461Z,12.85
2022-10-19T15:36:25.539Z,7.75
2022-10-19T15:39:06.267Z,5.70
2022-10-19T15:41:44.896Z,4.47
2022-10-19T15:44:42.470Z,4.32
2022-10-19T15:47:15.235Z,4.97
2022-10-19T15:49:41.878Z,4.78
2022-10-19T15:52:16.101Z,5.05
2022-10-19T15:54:42.968Z,4.65
2022-10-19T15:57:39.731Z,7.68
2022-10-19T16:00:16.054Z,6.88
2022-10-19T16:02:42.977Z,6.20
2022-10-19T16:05:10.017Z,5.65
2022-10-19T16:07:40.089Z,4.90
2022-10-19T16:10:08.198Z,5.80
2022-10-19T16:12:34.911Z,7.80
2022-10-19T16:15:01.466Z,7.45
2022-10-19T16:17:28.197Z,5.28
2022-10-19T16:19:54.748Z,5.60
2022-10-19T16:22:21.437Z,5.43
2022-10-19T16:24:48.118Z,4.80
2022-10-19T16:27:16.123Z,5.07
2022-10-19T16:29:44.306Z,6.00
2022-10-19T16:32:11.095Z,5.18
2022-10-19T16:34:38.102Z,5.25
2022-10-19T16:37:06.908Z,4.97
2022-10-19T16:39:34.450Z,5.18
2022-10-19T16:42:01.334Z,5.07
2022-10-19T16:44:27.912Z,6.38
2022-10-19T16:46:56.625Z,5.38
2022-10-19T16:49:23.561Z,5.30
2022-10-19T16:51:53.231Z,5.95
2022-10-19T16:54:23.976Z,5.00
2022-10-19T16:56:50.536Z,5.60
2022-10-19T16:59:18.446Z,4.85
2022-10-19T17:01:46.532Z,5.00
2022-10-19T17:04:15.300Z,5.47
2022-10-19T17:06:42.133Z,6.03
2022-10-19T17:11:55.817Z,4.80
2022-10-19T17:14:22.466Z,5.45
2022-10-19T17:16:49.098Z,4.85
2022-10-19T17:19:15.716Z,5.53
2022-10-19T17:21:42.705Z,6.97
2022-10-19T17:24:20.196Z,6.85
2022-10-19T17:26:49.478Z,5.78
2022-10-19T17:29:16.217Z,6.35
2022-10-19T17:31:43.550Z,6.85
2022-10-19T17:34:10.716Z,6.15
2022-10-19T17:39:17.752Z,6.47
2022-10-19T17:41:48.974Z,6.03
2022-10-19T17:44:16.910Z,7.57
2022-10-19T17:46:44.273Z,5.70
2022-10-19T17:49:11.452Z,6.40
2022-10-19T17:51:38.786Z,6.88
2022-10-19T17:54:08.289Z,6.00
2022-10-19T17:56:36.626Z,6.32
2022-10-19T17:59:04.286Z,6.82
2022-10-19T18:01:31.528Z,6.40
2022-10-19T18:03:58.078Z,10.55
2022-10-19T18:06:27.498Z,9.13
2022-10-19T18:08:56.482Z,8.65
2022-10-19T18:11:25.154Z,8.70
2022-10-19T18:13:54.045Z,8.30
2022-10-19T18:16:23.738Z,9.25
2022-10-19T18:18:53.414Z,8.80
2022-10-19T18:21:24.794Z,8.48
2022-10-19T18:23:53.374Z,9.02
2022-10-19T18:26:25.779Z,9.85
2022-10-19T18:28:53.254Z,9.32
2022-10-19T18:31:21.922Z,9.60
2022-10-19T18:33:55.201Z,8.82
2022-10-19T18:36:21.856Z,7.57
2022-10-19T18:38:52.747Z,8.25
2022-10-19T18:41:20.082Z,8.02
2022-10-19T18:43:55.367Z,8.48
2022-10-19T18:46:23.589Z,7.80
2022-10-19T18:48:50.197Z,8.07
2022-10-19T18:51:18.927Z,7.18
2022-10-19T18:53:46.255Z,9.20
2022-10-19T18:56:15.658Z,11.18
2022-10-19T18:58:42.659Z,9.52
2022-10-19T19:01:22.940Z,8.43
2022-10-19T19:03:52.157Z,8.68
2022-10-19T19:06:22.110Z,5.90
2022-10-19T19:08:49.269Z,8.13
2022-10-19T19:11:32.953Z,8.02
2022-10-19T19:14:15.261Z,7.70
2022-10-19T19:16:42.987Z,7.82
2022-10-19T19:19:12.561Z,8.55
2022-10-19T19:21:41.867Z,9.80
2022-10-19T19:24:08.514Z,9.75
2022-10-19T19:26:39.633Z,10.73
2022-10-19T19:29:06.424Z,13.30
2022-10-19T19:31:33.362Z,11.65
2022-10-19T19:34:01.100Z,11.73
2022-10-19T19:36:28.500Z,12.05
2022-10-19T19:38:56.979Z,8.90
2022-10-19T19:41:23.733Z,9.57
2022-10-19T19:43:50.472Z,7.80
2022-10-19T19:46:19.307Z,6.60
2022-10-19T19:48:47.965Z,7.45
2022-10-19T19:51:21.018Z,6.72
2022-10-19T19:53:48.757Z,6.53
2022-10-19T19:56:16.851Z,6.35
2022-10-19T19:58:45.252Z,6.38
2022-10-19T20:01:18.253Z,6.13
2022-10-19T20:03:46.040Z,6.53
2022-10-19T20:06:14.702Z,11.65
2022-10-19T20:08:41.432Z,9.38
2022-10-19T20:11:16.141Z,8.98
2022-10-19T20:13:44.840Z,9.15
2022-10-19T20:16:14.975Z,10.35
2022-10-19T20:18:45.136Z,8.88
2022-10-19T20:21:12.226Z,9.25
2022-10-19T20:23:38.993Z,9.38
2022-10-19T20:26:06.285Z,8.30
2022-10-19T20:28:33.258Z,8.52
2022-10-19T20:31:08.000Z,8.20
2022-10-19T20:33:36.451Z,8.07
2022-10-19T20:36:08.100Z,7.93
2022-10-19T20:38:35.944Z,8.82
2022-10-19T20:41:08.416Z,7.68
2022-10-19T20:43:36.887Z,7.78
2022-10-19T20:46:11.832Z,7.20
2022-10-19T20:48:39.635Z,7.30
2022-10-19T20:51:09.054Z,7.80
2022-10-19T20:53:35.793Z,7.63
2022-10-19T20:56:06.987Z,7.05
2022-10-19T20:58:34.684Z,8.27
2022-10-19T21:01:19.426Z,7.45
2022-10-19T21:03:48.766Z,6.28
2022-10-19T21:06:15.963Z,6.35
2022-10-19T21:08:42.834Z,6.63
2022-10-19T21:11:16.989Z,6.18
2022-10-19T21:13:44.149Z,5.70
2022-10-19T21:16:13.609Z,6.40
2022-10-19T21:18:40.723Z,6.38
2022-10-19T21:21:16.001Z,6.10
2022-10-19T21:23:44.393Z,6.47
2022-10-19T21:26:11.088Z,6.18
2022-10-19T21:28:38.449Z,6.43
2022-10-19T21:31:09.247Z,6.72
2022-10-19T21:33:36.408Z,6.18
2022-10-19T21:36:05.451Z,6.93
2022-10-19T21:38:32.248Z,7.05
2022-10-19T21:41:07.874Z,5.93
2022-10-19T21:43:35.143Z,6.22
2022-10-19T21:46:03.566Z,6.15
2022-10-19T21:48:31.074Z,6.75
2022-10-19T21:50:57.681Z,7.03
2022-10-19T21:53:24.407Z,7.18
2022-10-19T21:55:52.713Z,7.38
2022-10-19T21:58:23.177Z,6.93
2022-10-19T22:00:49.810Z,7.00
2022-10-19T22:03:18.204Z,6.32
2022-10-19T22:05:51.726Z,6.68
2022-10-19T22:08:18.390Z,7.20
2022-10-19T22:10:44.942Z,6.55
2022-10-19T22:13:11.559Z,6.70
2022-10-19T22:15:39.032Z,6.28
2022-10-19T22:18:05.792Z,6.43
2022-10-19T22:20:36.105Z,6.70
2022-10-19T22:23:04.795Z,6.68
2022-10-19T22:25:32.386Z,7.15
2022-10-19T22:27:59.069Z,6.40
2022-10-19T22:30:25.887Z,6.53
2022-10-19T22:32:52.701Z,5.80
2022-10-19T22:35:19.397Z,6.50
2022-10-19T22:37:46.156Z,5.65
2022-10-19T22:40:13.254Z,6.82
2022-10-19T22:42:39.854Z,7.05
2022-10-19T22:45:06.993Z,6.75
2022-10-19T22:47:33.628Z,6.13
2022-10-19T22:50:00.226Z,6.40
2022-10-19T22:52:26.901Z,6.63
2022-10-19T22:54:53.668Z,6.43
2022-10-19T22:57:20.340Z,7.78
2022-10-19T22:59:46.958Z,6.13
2022-10-19T23:02:13.593Z,7.53
2022-10-19T23:04:40.141Z,6.88
2022-10-19T23:07:06.858Z,6.57
2022-10-19T23:09:33.446Z,6.97
2022-10-19T23:12:00.114Z,6.15
2022-10-19T23:14:26.722Z,6.43
2022-10-19T23:16:53.388Z,7.18
2022-10-19T23:19:20.097Z,7.00
2022-10-19T23:21:46.759Z,6.40
2022-10-19T23:24:13.308Z,7.50
2022-10-19T23:26:39.995Z,6.22
2022-10-19T23:29:06.593Z,6.43
2022-10-19T23:31:33.707Z,7.53
2022-10-19T23:34:00.271Z,6.53
2022-10-19T23:36:28.596Z,6.50
2022-10-19T23:38:57.301Z,6.18
2022-10-19T23:41:24.089Z,7.30
2022-10-19T23:43:50.923Z,7.50
2022-10-19T23:46:17.577Z,7.75
2022-10-19T23:48:44.188Z,7.93
2022-10-19T23:51:16.578Z,6.88
2022-10-19T23:53:44.906Z,6.68
2022-10-19T23:56:20.746Z,6.63
2022-10-19T23:58:47.753Z,7.07
